Time;durP1;ratioP1;P1;durP2;ratioP2;P2;SDS_P1;SDS_P2;PMS_P1;PMS_P2;Temp;Humidity;BMP_temperature;BMP_pressure;BME280_temperature;BME280_humidity;BME280_pressure;Samples;Min_cycle;Max_cycle;Signal;HPM_P1;HPM_P2
2024/02/22 00:01:13;;;;;;;17.30;9.90;;;;;;;4.90;92.27;99302.50;216474;1267;139476;-75
2024/02/22 00:06:26;;;;;;;15.20;8.50;;;;;;;4.77;92.28;99277.56;218046;1263;235239;-75
2024/02/22 00:11:31;;;;;;;14.60;10.10;;;;;;;4.68;92.47;99270.27;217283;1261;140466;-75
2024/02/22 00:16:37;;;;;;;17.70;10.90;;;;;;;4.60;92.46;99258.11;216972;1263;139562;-75
2024/02/22 00:21:42;;;;;;;16.60;10.40;;;;;;;4.51;92.32;99241.10;217290;1263;139260;-75
2024/02/22 00:26:47;;;;;;;17.90;10.80;;;;;;;4.41;92.41;99227.35;217074;1261;140417;-72
2024/02/22 00:31:51;;;;;;;17.70;11.00;;;;;;;4.32;92.50;99218.59;217206;1257;139112;-74
2024/02/22 00:36:55;;;;;;;21.10;9.90;;;;;;;4.26;92.47;99213.26;217176;1263;140051;-73
2024/02/22 00:41:59;;;;;;;19.20;10.40;;;;;;;4.20;92.70;99217.95;217079;1260;139952;-73
2024/02/22 00:47:03;;;;;;;17.90;9.10;;;;;;;4.16;92.69;99214.22;217859;1257;140285;-74
2024/02/22 00:52:07;;;;;;;13.40;9.70;;;;;;;4.11;92.72;99208.22;217606;1263;139502;-74
2024/02/22 00:57:12;;;;;;;16.30;8.90;;;;;;;4.05;92.73;99199.77;217100;1263;139960;-73
2024/02/22 01:02:17;;;;;;;23.50;11.30;;;;;;;3.98;92.64;99185.88;217100;1259;140161;-75
2024/02/22 01:07:22;;;;;;;17.10;10.30;;;;;;;3.92;92.78;99172.27;217233;1261;140653;-74
2024/02/22 01:12:27;;;;;;;15.00;9.50;;;;;;;3.87;92.91;99165.70;217222;1263;140224;-73
2024/02/22 01:17:32;;;;;;;19.20;12.80;;;;;;;3.84;92.95;99167.09;217267;1260;139776;-74
2024/02/22 01:22:37;;;;;;;13.90;10.30;;;;;;;3.78;92.86;99159.02;217054;1262;139265;-74
2024/02/22 01:27:43;;;;;;;17.60;10.70;;;;;;;3.74;92.81;99150.30;217186;1259;150845;-74
2024/02/22 01:32:47;;;;;;;17.70;10.30;;;;;;;3.70;93.18;99142.75;216970;1261;140600;-74
2024/02/22 01:37:51;;;;;;;15.30;8.40;;;;;;;3.66;93.14;99139.36;216863;1261;139063;-74
2024/02/22 01:42:55;;;;;;;18.70;9.70;;;;;;;3.62;93.04;99132.24;217114;1259;139084;-73
2024/02/22 01:47:58;;;;;;;22.60;10.40;;;;;;;3.58;93.16;99117.48;216943;1262;139946;-74
2024/02/22 01:53:03;;;;;;;15.70;9.40;;;;;;;3.58;93.46;99110.39;217082;1259;141715;-74
2024/02/22 01:58:09;;;;;;;16.70;9.20;;;;;;;3.59;93.61;99100.09;217383;1259;140072;-73
2024/02/22 02:03:13;;;;;;;16.20;9.60;;;;;;;3.59;93.77;99087.08;217185;1260;139521;-75
2024/02/22 02:08:17;;;;;;;16.20;8.80;;;;;;;3.59;93.73;99077.11;217349;1262;140678;-74
2024/02/22 02:13:22;;;;;;;16.00;9.20;;;;;;;3.59;93.82;99070.94;217319;1259;138984;-75
2024/02/22 02:18:27;;;;;;;12.00;7.50;;;;;;;3.61;93.93;99064.16;216964;1262;140327;-75
2024/02/22 02:24:00;;;;;;;15.40;8.80;;;;;;;3.61;94.02;99055.33;217175;1262;139733;-74
2024/02/22 02:29:05;;;;;;;9.70;7.50;;;;;;;3.62;94.09;99050.34;217177;1258;139548;-74
2024/02/22 02:34:09;;;;;;;13.40;7.40;;;;;;;3.64;94.13;99041.79;217147;1263;139688;-75
2024/02/22 02:39:13;;;;;;;10.50;7.20;;;;;;;3.66;94.10;99031.35;217608;1260;139604;-75
2024/02/22 02:44:18;;;;;;;12.70;8.10;;;;;;;3.67;93.96;99025.42;218211;1258;139300;-75
2024/02/22 02:49:22;;;;;;;12.90;6.80;;;;;;;3.66;93.99;99018.50;217138;1259;139804;-74
2024/02/22 02:54:28;;;;;;;18.60;7.80;;;;;;;3.67;93.93;99016.77;217089;1258;138387;-75
2024/02/22 02:59:32;;;;;;;11.50;6.90;;;;;;;3.70;94.19;99007.39;217100;1262;139444;-76
2024/02/22 03:04:37;;;;;;;11.50;6.50;;;;;;;3.75;94.17;99000.16;217033;1263;139011;-75
2024/02/22 03:09:41;;;;;;;9.30;7.10;;;;;;;3.78;94.08;98990.75;217308;1262;141584;-74
2024/02/22 03:14:45;;;;;;;12.60;6.20;;;;;;;3.79;93.91;98980.69;218153;1258;139096;-74
2024/02/22 03:19:52;;;;;;;8.40;6.00;;;;;;;3.81;93.95;98972.20;217327;1259;139105;-73
2024/02/22 03:24:57;;;;;;;16.80;6.40;;;;;;;3.85;93.98;98963.48;217219;1259;139754;-73
2024/02/22 03:30:03;;;;;;;11.60;6.20;;;;;;;3.90;94.25;98963.65;217908;1260;140050;-74
2024/02/22 03:35:09;;;;;;;10.40;6.10;;;;;;;3.94;93.97;98958.48;217196;1258;141789;-74
2024/02/22 03:40:14;;;;;;;12.80;6.50;;;;;;;3.98;93.95;98961.00;217188;1259;139536;-75
2024/02/22 03:45:19;;;;;;;10.50;5.40;;;;;;;4.04;94.16;98961.38;217118;1257;139165;-74
2024/02/22 03:50:23;;;;;;;9.10;6.40;;;;;;;4.10;93.88;98960.98;217158;1259;140214;-74
2024/02/22 03:55:30;;;;;;;7.90;4.90;;;;;;;4.16;93.75;98958.80;218911;1259;139208;-75
2024/02/22 04:00:34;;;;;;;10.70;5.40;;;;;;;4.18;93.58;98948.94;217359;1262;139016;-75
2024/02/22 04:05:39;;;;;;;11.20;5.70;;;;;;;4.19;93.17;98949.48;217245;1260;139162;-75
2024/02/22 04:10:43;;;;;;;9.90;5.80;;;;;;;4.20;93.28;98938.77;217178;1259;139890;-75
2024/02/22 04:15:49;;;;;;;6.30;4.30;;;;;;;4.22;93.29;98929.43;217368;1261;140077;-75
2024/02/22 04:20:53;;;;;;;10.90;5.10;;;;;;;4.23;93.40;98925.73;217410;1262;139478;-74
2024/02/22 04:25:57;;;;;;;11.90;5.40;;;;;;;4.26;93.15;98915.16;217111;1259;139753;-74
2024/02/22 04:31:04;;;;;;;10.10;5.00;;;;;;;4.29;93.01;98909.96;217055;1262;139206;-76
2024/02/22 04:36:08;;;;;;;16.90;7.00;;;;;;;4.32;92.84;98901.61;217093;1262;139454;-74
2024/02/22 04:41:20;;;;;;;10.40;4.60;;;;;;;4.36;93.01;98894.85;217081;1259;140044;-74
2024/02/22 04:46:24;;;;;;;14.70;10.30;;;;;;;4.40;92.71;98885.69;217079;1259;139040;-74
2024/02/22 04:51:33;;;;;;;9.40;6.10;;;;;;;4.44;92.91;98880.75;216982;1259;138813;-75
2024/02/22 04:56:39;;;;;;;;;;;;;;;4.49;92.71;98869.75;216967;1262;138922;-75
2024/02/22 05:01:42;;;;;;;10.20;6.30;;;;;;;4.50;92.86;98864.51;217235;1261;126314;-76
2024/02/22 05:06:46;;;;;;;5.70;4.30;;;;;;;4.53;92.32;98855.19;216977;1259;139769;-75
2024/02/22 05:11:51;;;;;;;5.50;3.80;;;;;;;4.57;92.37;98850.72;217244;1259;139134;-73
2024/02/22 05:16:55;;;;;;;7.20;4.30;;;;;;;4.61;92.18;98849.89;216902;1259;141116;-75
2024/02/22 05:22:00;;;;;;;8.90;6.00;;;;;;;4.64;92.34;98847.79;217312;1257;139095;-76
2024/02/22 05:27:05;;;;;;;11.50;4.00;;;;;;;4.67;92.23;98844.43;217097;1259;140804;-75
2024/02/22 05:32:09;;;;;;;5.80;3.90;;;;;;;4.70;91.96;98840.55;217024;1258;139656;-76
2024/02/22 05:37:13;;;;;;;8.90;3.80;;;;;;;4.74;91.73;98834.21;217063;1259;139748;-74
2024/02/22 05:42:17;;;;;;;5.30;4.30;;;;;;;4.78;91.62;98823.98;217104;1259;139534;-75
2024/02/22 05:47:28;;;;;;;8.60;4.00;;;;;;;4.82;91.53;98822.20;217921;1259;138497;-76
2024/02/22 05:52:32;;;;;;;5.00;4.10;;;;;;;4.84;91.36;98816.94;217691;1259;138810;-75
2024/02/22 05:57:39;;;;;;;7.80;4.70;;;;;;;4.88;91.06;98806.73;220150;1258;139916;-74
2024/02/22 06:02:43;;;;;;;6.40;3.30;;;;;;;4.93;90.91;98800.27;216851;1263;140208;-74
2024/02/22 06:07:48;;;;;;;5.10;3.70;;;;;;;4.97;90.64;98799.02;217080;1262;141099;-73
2024/02/22 06:12:53;;;;;;;6.60;4.20;;;;;;;5.02;90.76;98794.41;217082;1262;139191;-74
2024/02/22 06:17:59;;;;;;;5.00;4.30;;;;;;;5.07;90.40;98790.81;217043;1257;138867;-76
2024/02/22 06:23:08;;;;;;;6.70;4.30;;;;;;;5.12;90.30;98787.48;218490;1258;140763;-77
2024/02/22 06:28:12;;;;;;;9.20;4.10;;;;;;;5.16;90.16;98779.83;217488;1259;139608;-77
2024/02/22 06:33:16;;;;;;;12.70;4.40;;;;;;;5.20;89.85;98772.96;217601;1258;140320;-75
2024/02/22 06:38:21;;;;;;;13.10;8.10;;;;;;;5.26;89.68;98766.83;217486;1258;138922;-75
2024/02/22 06:43:25;;;;;;;6.00;3.50;;;;;;;5.29;89.61;98761.42;217450;1260;141361;-76
2024/02/22 06:48:29;;;;;;;10.20;5.70;;;;;;;5.29;89.61;98756.55;217374;1257;138944;-75
2024/02/22 06:53:33;;;;;;;5.80;3.40;;;;;;;5.31;89.81;98746.56;217913;1256;139408;-74
2024/02/22 06:58:38;;;;;;;5.70;3.60;;;;;;;5.34;89.00;98740.66;217938;1256;140167;-76
2024/02/22 07:03:43;;;;;;;14.10;4.80;;;;;;;5.36;88.95;98732.02;217866;1256;139213;-74
2024/02/22 07:08:47;;;;;;;9.00;4.20;;;;;;;5.41;89.30;98733.14;218012;1256;139799;-73
2024/02/22 07:13:51;;;;;;;9.90;4.50;;;;;;;5.43;89.09;98726.85;217815;1259;139317;-76
2024/02/22 07:18:55;;;;;;;10.60;5.40;;;;;;;5.46;89.12;98726.89;217994;1260;141981;-76
2024/02/22 07:24:00;;;;;;;6.50;3.70;;;;;;;5.54;89.11;98724.30;217770;1256;140009;-75
2024/02/22 07:29:03;;;;;;;11.60;4.70;;;;;;;5.59;88.74;98721.02;217809;1259;139018;-75
2024/02/22 07:34:12;;;;;;;6.60;4.50;;;;;;;5.65;89.00;98713.60;218358;1255;382133;-74
2024/02/22 07:39:16;;;;;;;9.30;3.80;;;;;;;5.75;88.51;98716.44;217755;1254;138794;-75
2024/02/22 07:44:20;;;;;;;6.40;4.20;;;;;;;5.82;88.34;98707.02;217732;1256;140060;-75
2024/02/22 07:49:25;;;;;;;6.50;3.80;;;;;;;5.90;88.30;98704.30;217832;1258;138637;-74
2024/02/22 07:54:29;;;;;;;8.70;4.10;;;;;;;5.96;87.94;98693.80;218603;1254;140632;-75
2024/02/22 07:59:33;;;;;;;11.40;4.90;;;;;;;6.03;88.17;98683.84;218256;1256;139590;-74
2024/02/22 08:04:38;;;;;;;7.50;5.10;;;;;;;6.11;88.00;98677.13;219064;1255;142669;-74
2024/02/22 08:09:42;;;;;;;5.10;3.40;;;;;;;6.24;87.83;98671.63;217657;1260;138333;-74
2024/02/22 08:14:47;;;;;;;5.90;4.00;;;;;;;6.37;87.73;98668.23;217863;1259;139947;-75
2024/02/22 08:19:52;;;;;;;4.80;3.40;;;;;;;6.49;87.61;98657.05;217689;1256;141213;-74
2024/02/22 08:24:56;;;;;;;5.90;4.40;;;;;;;6.60;87.58;98657.40;217734;1254;139964;-75
2024/02/22 08:30:00;;;;;;;7.00;4.30;;;;;;;6.82;87.40;98644.84;217882;1258;142114;-77
2024/02/22 08:35:05;;;;;;;5.30;3.20;;;;;;;7.07;87.08;98635.85;217613;1254;139777;-76
2024/02/22 08:40:11;;;;;;;8.20;4.80;;;;;;;7.34;86.95;98624.17;218076;1254;140537;-76
2024/02/22 08:45:35;;;;;;;5.50;4.50;;;;;;;7.61;86.45;98619.92;217708;1256;139227;-77
2024/02/22 08:50:40;;;;;;;8.80;4.30;;;;;;;7.71;85.89;98618.85;217752;1256;139815;-76
2024/02/22 08:55:44;;;;;;;9.90;4.40;;;;;;;7.72;85.56;98611.59;217736;1256;138674;-76
2024/02/22 09:00:48;;;;;;;6.50;3.90;;;;;;;7.65;85.50;98598.88;217811;1259;139271;-75
2024/02/22 09:05:52;;;;;;;6.30;4.20;;;;;;;7.64;85.36;98585.64;217644;1256;139796;-76
2024/02/22 09:10:56;;;;;;;4.20;3.60;;;;;;;7.72;85.16;98578.23;217751;1256;139017;-76
2024/02/22 09:16:02;;;;;;;6.30;3.40;;;;;;;7.91;85.34;98578.65;217950;1256;140584;-76
2024/02/22 09:21:07;;;;;;;7.80;4.80;;;;;;;8.13;85.02;98575.21;217857;1259;139232;-75
2024/02/22 09:26:12;;;;;;;4.90;3.30;;;;;;;8.27;84.67;98568.89;218097;1259;139845;-77
2024/02/22 09:31:17;;;;;;;5.50;4.30;;;;;;;8.31;84.06;98560.81;218373;1256;139144;-77
2024/02/22 09:36:22;;;;;;;6.50;4.60;;;;;;;8.37;84.05;98549.98;218035;1255;141481;-75
2024/02/22 09:41:26;;;;;;;7.50;5.00;;;;;;;8.49;84.09;98534.92;217651;1256;140219;-76
2024/02/22 09:46:31;;;;;;;7.60;4.40;;;;;;;8.61;83.86;98519.14;217912;1256;140354;-74
2024/02/22 09:51:36;;;;;;;6.20;4.60;;;;;;;8.80;83.68;98509.33;218338;1256;140868;-75
2024/02/22 09:56:41;;;;;;;5.60;4.50;;;;;;;9.05;83.58;98504.86;218313;1255;139074;-75
2024/02/22 10:01:46;;;;;;;5.00;2.90;;;;;;;9.22;83.09;98499.01;218189;1256;140007;-76
2024/02/22 10:06:58;;;;;;;5.80;3.50;;;;;;;9.44;83.11;98487.77;218505;1255;140685;-76
2024/02/22 10:12:05;;;;;;;11.60;4.70;;;;;;;9.66;82.74;98485.08;217883;1257;139134;-76
2024/02/22 10:17:11;;;;;;;7.90;3.90;;;;;;;9.75;82.05;98483.48;218017;1259;139392;-76
2024/02/22 10:22:22;;;;;;;4.80;3.80;;;;;;;9.83;81.69;98481.02;217765;1260;139266;-76
2024/02/22 10:27:26;;;;;;;4.70;3.20;;;;;;;9.93;81.78;98478.11;217810;1259;139738;-77
2024/02/22 10:32:31;;;;;;;5.50;3.00;;;;;;;9.98;81.30;98467.95;218213;1259;139994;-76
2024/02/22 10:37:36;;;;;;;4.70;2.60;;;;;;;9.94;81.43;98462.66;217876;1259;140625;-76
2024/02/22 10:42:42;;;;;;;3.90;3.20;;;;;;;9.85;81.34;98461.08;218024;1256;141610;-75
2024/02/22 10:47:50;;;;;;;4.00;2.50;;;;;;;9.78;81.41;98450.52;217883;1256;140807;-78
2024/02/22 10:52:58;;;;;;;3.30;2.00;;;;;;;9.69;81.84;98445.23;217698;1256;139146;-78
2024/02/22 10:58:03;;;;;;;5.40;2.20;;;;;;;9.70;81.98;98436.34;217831;1254;139976;-78
2024/02/22 11:03:08;;;;;;;4.30;2.30;;;;;;;9.60;82.03;98436.83;217676;1256;140447;-80
2024/02/22 11:08:20;;;;;;;2.00;1.90;;;;;;;9.44;82.53;98430.91;217907;1254;140426;-79
2024/02/22 11:13:25;;;;;;;3.40;1.70;;;;;;;9.33;82.87;98427.17;217874;1256;139083;-78
2024/02/22 11:18:30;;;;;;;1.60;1.30;;;;;;;9.21;83.38;98419.45;217741;1256;139685;-77
2024/02/22 11:23:34;;;;;;;1.80;1.70;;;;;;;9.02;83.69;98416.64;217619;1260;140287;-77
2024/02/22 11:28:38;;;;;;;4.00;2.10;;;;;;;8.95;84.23;98413.30;217705;1259;139555;-78
2024/02/22 11:33:44;;;;;;;3.40;2.10;;;;;;;8.91;84.73;98405.77;218521;1258;140552;-77
2024/02/22 11:38:56;;;;;;;5.20;3.70;;;;;;;8.82;84.91;98400.57;217723;1256;139716;-77
2024/02/22 11:44:06;;;;;;;6.00;2.90;;;;;;;8.73;85.27;98394.71;218206;1257;140581;-79
2024/02/22 11:49:11;;;;;;;3.40;3.00;;;;;;;8.64;85.41;98389.85;217665;1256;140426;-78
2024/02/22 11:54:21;;;;;;;6.50;2.80;;;;;;;8.62;86.05;98391.06;217762;1257;142895;-76
2024/02/22 11:59:25;;;;;;;3.10;2.70;;;;;;;8.57;85.67;98387.16;217885;1256;140288;-75
2024/02/22 12:04:32;;;;;;;4.90;3.10;;;;;;;8.52;85.98;98376.77;217869;1256;140976;-75
2024/02/22 12:09:36;;;;;;;6.10;3.90;;;;;;;8.39;86.04;98374.54;217769;1259;139725;-76
2024/02/22 12:14:40;;;;;;;4.50;3.80;;;;;;;8.28;86.30;98371.28;217771;1256;139810;-77
2024/02/22 12:19:44;;;;;;;5.90;3.70;;;;;;;8.15;86.27;98360.23;218760;1256;138957;-75
2024/02/22 12:24:49;;;;;;;4.60;3.10;;;;;;;8.04;86.59;98360.13;218241;1256;140139;-77
2024/02/22 12:29:55;;;;;;;4.90;3.90;;;;;;;8.05;86.87;98356.42;217398;1256;140162;-78
2024/02/22 12:34:59;;;;;;;7.30;4.30;;;;;;;7.96;86.76;98346.95;217805;1256;140662;-77
2024/02/22 12:40:08;;;;;;;9.20;6.00;;;;;;;7.89;87.16;98338.66;217896;1256;138872;-79
2024/02/22 12:45:14;;;;;;;9.80;5.70;;;;;;;7.76;87.20;98329.57;217837;1256;140725;-79
2024/02/22 12:50:28;;;;;;;10.00;5.40;;;;;;;7.64;87.32;98314.44;218564;1256;140159;-78
2024/02/22 12:55:31;;;;;;;8.50;5.90;;;;;;;7.52;87.58;98306.27;217558;1256;139777;-77
2024/02/22 13:00:35;;;;;;;6.60;4.30;;;;;;;7.47;87.81;98290.18;218062;1259;139331;-75
2024/02/22 13:05:40;;;;;;;8.60;5.00;;;;;;;7.38;88.03;98285.90;217781;1259;140149;-77
2024/02/22 13:10:44;;;;;;;10.30;5.30;;;;;;;7.34;88.93;98274.14;217744;1258;140028;-75
2024/02/22 13:15:48;;;;;;;11.40;6.60;;;;;;;7.31;89.10;98264.36;217866;1259;139438;-76
2024/02/22 13:20:52;;;;;;;9.20;4.90;;;;;;;7.25;89.18;98252.59;217913;1256;139939;-75
2024/02/22 13:25:57;;;;;;;5.40;4.30;;;;;;;7.19;89.56;98250.98;217582;1259;139273;-76
2024/02/22 13:31:01;;;;;;;9.10;5.50;;;;;;;7.17;89.48;98233.98;217690;1257;140185;-75
2024/02/22 13:36:05;;;;;;;9.30;4.70;;;;;;;7.14;89.97;98223.64;219518;1256;139871;-76
2024/02/22 13:41:09;;;;;;;9.90;6.00;;;;;;;7.17;90.43;98222.66;217843;1258;139262;-76
2024/02/22 13:46:16;;;;;;;13.00;7.80;;;;;;;7.21;90.54;98210.19;217783;1254;140691;-75
2024/02/22 13:51:20;;;;;;;9.90;6.70;;;;;;;7.26;90.88;98204.79;217845;1260;139022;-76
2024/02/22 13:56:35;;;;;;;11.70;8.00;;;;;;;7.34;91.22;98188.57;217753;1259;138459;-76
2024/02/22 14:01:39;;;;;;;10.80;7.50;;;;;;;7.42;91.63;98183.83;218126;1256;140629;-74
2024/02/22 14:06:43;;;;;;;10.30;6.90;;;;;;;7.46;91.22;98178.23;218356;1259;139223;-77
2024/02/22 14:11:48;;;;;;;13.10;7.50;;;;;;;7.40;91.37;98176.80;218556;1259;140641;-73
2024/02/22 14:16:53;;;;;;;9.80;7.20;;;;;;;7.34;91.20;98172.14;218584;1256;140046;-73
2024/02/22 14:21:58;;;;;;;10.80;6.90;;;;;;;7.29;91.59;98166.39;217949;1256;139315;-74
2024/02/22 14:27:03;;;;;;;12.10;8.00;;;;;;;7.24;91.69;98147.09;217863;1261;141986;-74
2024/02/22 14:32:17;;;;;;;12.40;7.90;;;;;;;7.20;91.95;98132.86;217811;1259;140425;-73
2024/02/22 14:37:21;;;;;;;15.50;10.00;;;;;;;7.23;92.03;98128.16;217786;1259;151049;-76
2024/02/22 14:42:26;;;;;;;15.00;8.60;;;;;;;7.18;92.04;98118.21;217835;1256;140679;-75
2024/02/22 14:47:30;;;;;;;16.70;7.80;;;;;;;7.18;92.46;98110.64;217850;1256;139112;-73
2024/02/22 14:52:35;;;;;;;12.40;6.50;;;;;;;7.17;92.59;98099.81;217893;1259;140082;-73
2024/02/22 14:57:39;;;;;;;17.80;8.10;;;;;;;7.18;92.56;98091.07;217736;1260;139230;-74
2024/02/22 15:02:42;;;;;;;11.20;6.10;;;;;;;7.19;92.71;98079.27;218052;1256;139738;-72
2024/02/22 15:07:46;;;;;;;17.70;10.10;;;;;;;7.21;92.76;98073.97;217751;1256;139415;-75
2024/02/22 15:12:50;;;;;;;15.80;8.10;;;;;;;7.23;92.88;98068.80;219593;1259;140547;-77
2024/02/22 15:17:54;;;;;;;7.80;5.90;;;;;;;7.24;92.65;98059.48;217878;1259;140108;-74
2024/02/22 15:22:58;;;;;;;13.30;8.30;;;;;;;7.26;92.67;98047.05;218727;1254;139572;-75
2024/02/22 15:28:03;;;;;;;15.10;8.30;;;;;;;7.28;92.85;98041.80;218062;1260;138939;-75
2024/02/22 15:33:16;;;;;;;11.70;7.50;;;;;;;7.27;92.83;98035.13;217985;1261;139602;-74
2024/02/22 15:38:20;;;;;;;11.00;6.90;;;;;;;7.25;92.79;98028.48;217815;1256;139656;-78
2024/02/22 15:43:25;;;;;;;12.90;7.00;;;;;;;7.22;92.78;98017.27;217703;1259;139037;-75
2024/02/22 15:48:31;;;;;;;10.10;8.80;;;;;;;7.20;92.81;98010.63;218369;1256;139826;-75
2024/02/22 15:53:35;;;;;;;10.60;6.60;;;;;;;7.22;92.90;98004.77;218174;1256;140647;-75
2024/02/22 15:58:39;;;;;;;13.10;7.10;;;;;;;7.23;92.49;98004.35;217636;1259;140592;-76
2024/02/22 16:03:46;;;;;;;10.50;8.40;;;;;;;7.24;92.76;97998.85;217860;1260;139679;-76
2024/02/22 16:08:55;;;;;;;11.60;8.20;;;;;;;7.25;92.35;98001.66;217829;1256;139044;-75
2024/02/22 16:13:59;;;;;;;9.40;7.00;;;;;;;7.27;92.16;97993.84;217950;1260;152302;-74
2024/02/22 16:19:04;;;;;;;8.50;6.50;;;;;;;7.29;92.14;97996.23;217687;1259;211000;-75
2024/02/22 16:24:09;;;;;;;10.60;7.50;;;;;;;7.33;91.92;97992.60;218474;1258;139318;-73
2024/02/22 16:29:14;;;;;;;10.40;6.40;;;;;;;7.36;91.47;97991.95;217952;1261;140150;-76
2024/02/22 16:34:25;;;;;;;12.20;6.80;;;;;;;7.37;91.30;97988.09;218190;1259;139870;-75
2024/02/22 16:39:29;;;;;;;13.20;7.90;;;;;;;7.37;90.92;97985.45;218047;1259;140194;-75
2024/02/22 16:44:41;;;;;;;9.50;6.70;;;;;;;7.40;91.17;97989.33;218177;1259;140577;-75
2024/02/22 16:49:45;;;;;;;9.10;6.00;;;;;;;7.42;91.13;97990.79;217732;1257;139223;-74
2024/02/22 16:54:49;;;;;;;10.50;6.70;;;;;;;7.45;90.79;97990.85;217800;1262;139597;-75
2024/02/22 16:59:53;;;;;;;8.90;7.70;;;;;;;7.46;90.82;97989.27;217955;1256;139137;-76
2024/02/22 17:04:58;;;;;;;8.70;7.00;;;;;;;7.46;90.70;97984.23;217947;1259;140649;-74
2024/02/22 17:10:03;;;;;;;12.10;7.50;;;;;;;7.46;90.45;97977.71;218342;1257;140580;-76
2024/02/22 17:15:07;;;;;;;8.40;6.50;;;;;;;7.46;90.25;97968.27;218273;1260;140425;-75
2024/02/22 17:20:11;;;;;;;13.20;8.00;;;;;;;7.47;89.98;97951.52;217846;1257;140771;-75
2024/02/22 17:25:15;;;;;;;13.30;8.60;;;;;;;7.45;89.80;97940.38;217882;1254;140762;-74
2024/02/22 17:30:19;;;;;;;11.10;6.90;;;;;;;7.41;89.54;97938.66;217905;1260;139113;-74
2024/02/22 17:35:24;;;;;;;10.60;6.60;;;;;;;7.41;89.48;97934.68;218375;1260;139018;-77
2024/02/22 17:40:29;;;;;;;11.00;7.20;;;;;;;7.40;89.70;97926.83;217726;1260;139573;-74
2024/02/22 17:45:33;;;;;;;8.50;6.00;;;;;;;7.38;89.05;97922.15;218234;1257;140495;-74
2024/02/22 17:50:36;;;;;;;9.60;6.60;;;;;;;7.34;89.18;97914.98;218069;1260;139793;-76
2024/02/22 17:55:44;;;;;;;7.70;5.70;;;;;;;7.34;88.82;97905.23;217886;1254;140178;-74
2024/02/22 18:00:48;;;;;;;10.10;6.40;;;;;;;7.33;88.93;97901.84;217864;1259;139351;-73
2024/02/22 18:05:55;;;;;;;7.90;6.70;;;;;;;7.33;88.63;97896.96;217901;1259;139193;-74
2024/02/22 18:11:00;;;;;;;9.90;6.80;;;;;;;7.33;88.64;97896.86;217513;1261;222190;-73
2024/02/22 18:16:04;;;;;;;16.10;8.10;;;;;;;7.33;88.60;97897.77;217943;1257;140069;-74
2024/02/22 18:21:12;;;;;;;11.40;8.30;;;;;;;7.33;88.28;97889.48;217768;1256;209880;-76
2024/02/22 18:26:15;;;;;;;8.50;7.30;;;;;;;7.35;88.43;97885.09;217823;1255;139434;-73
2024/02/22 18:31:22;;;;;;;12.60;9.50;;;;;;;7.36;88.40;97883.98;217796;1257;139934;-73
2024/02/22 18:36:32;;;;;;;14.40;8.30;;;;;;;7.38;87.81;97874.39;217745;1258;140343;-75
2024/02/22 18:41:38;;;;;;;11.60;8.80;;;;;;;7.39;87.86;97860.66;217712;1254;139287;-75
2024/02/22 18:46:44;;;;;;;10.90;8.70;;;;;;;7.40;87.96;97857.22;217646;1260;141841;-76
2024/02/22 18:51:48;;;;;;;9.30;7.10;;;;;;;7.41;87.66;97850.17;217976;1260;140149;-73
2024/02/22 18:56:56;;;;;;;9.60;7.10;;;;;;;7.41;87.66;97843.55;217953;1257;139336;-75
2024/02/22 19:01:59;;;;;;;7.00;5.80;;;;;;;7.41;87.49;97836.75;217669;1258;140465;-73
2024/02/22 19:07:03;;;;;;;8.40;7.10;;;;;;;7.41;87.55;97830.45;217995;1257;139806;-74
2024/02/22 19:12:07;;;;;;;11.50;8.00;;;;;;;7.42;87.26;97823.63;218861;1257;139924;-74
2024/02/22 19:17:11;;;;;;;10.30;7.20;;;;;;;7.42;87.22;97817.89;217999;1255;139632;-73
2024/02/22 19:22:17;;;;;;;10.10;7.30;;;;;;;7.42;87.31;97812.70;219615;1260;140800;-73
2024/02/22 19:27:21;;;;;;;12.60;7.30;;;;;;;7.44;87.31;97810.42;217784;1255;139796;-73
2024/02/22 19:32:25;;;;;;;11.10;8.10;;;;;;;7.46;87.28;97800.46;217658;1254;687541;-75
2024/02/22 19:37:33;;;;;;;12.10;7.50;;;;;;;7.43;86.74;97786.83;217593;1259;139227;-73
2024/02/22 19:42:37;;;;;;;16.00;9.20;;;;;;;7.43;86.80;97773.67;217781;1259;139079;-74
2024/02/22 19:47:41;;;;;;;11.30;7.40;;;;;;;7.42;86.71;97768.11;217676;1257;139658;-75
2024/02/22 19:52:46;;;;;;;10.90;9.30;;;;;;;7.43;86.97;97765.67;218404;1258;138784;-73
2024/02/22 19:57:50;;;;;;;14.10;9.80;;;;;;;7.42;86.47;97761.80;217663;1259;139767;-74
2024/02/22 20:02:54;;;;;;;11.10;7.70;;;;;;;7.40;86.75;97757.08;217853;1259;140467;-76
2024/02/22 20:07:58;;;;;;;11.50;7.40;;;;;;;7.34;86.20;97752.41;217645;1257;140189;-76
2024/02/22 20:13:02;;;;;;;11.50;7.70;;;;;;;7.27;86.33;97744.98;217938;1254;141250;-76
2024/02/22 20:18:06;;;;;;;11.80;7.20;;;;;;;7.23;86.07;97747.88;217786;1254;162027;-76
2024/02/22 20:23:16;;;;;;;10.60;7.90;;;;;;;7.21;86.41;97746.17;217613;1259;139656;-74
2024/02/22 20:28:24;;;;;;;11.70;8.30;;;;;;;7.21;86.37;97745.54;218030;1260;139925;-74
2024/02/22 20:33:35;;;;;;;13.20;8.60;;;;;;;7.20;86.15;97741.67;217864;1257;139616;-73
2024/02/22 20:38:42;;;;;;;14.80;8.40;;;;;;;7.21;86.32;97735.58;218338;1256;140428;-74
2024/02/22 20:43:46;;;;;;;9.70;6.70;;;;;;;7.21;86.48;97734.30;217825;1257;248102;-74
2024/02/22 20:48:51;;;;;;;12.50;8.40;;;;;;;7.22;86.11;97734.36;217740;1259;139376;-72
2024/02/22 20:53:56;;;;;;;14.90;8.80;;;;;;;7.23;86.31;97729.02;218115;1256;140079;-74
2024/02/22 20:59:00;;;;;;;10.60;7.30;;;;;;;7.26;86.52;97722.77;217901;1254;139349;-73
2024/02/22 21:04:10;;;;;;;11.80;7.70;;;;;;;7.28;86.44;97718.64;217932;1256;139695;-73
2024/02/22 21:09:14;;;;;;;9.90;7.40;;;;;;;7.31;86.29;97709.21;220120;1254;139500;-74
2024/02/22 21:14:19;;;;;;;11.60;7.50;;;;;;;7.33;86.37;97710.85;217781;1256;139108;-74
2024/02/22 21:19:23;;;;;;;11.40;7.80;;;;;;;7.34;85.99;97709.15;217833;1254;139548;-75
2024/02/22 21:24:28;;;;;;;11.10;8.40;;;;;;;7.36;86.15;97712.54;218208;1254;139753;-75
2024/02/22 21:29:32;;;;;;;13.80;8.80;;;;;;;7.35;86.02;97704.16;218745;1255;139615;-72
2024/02/22 21:34:36;;;;;;;8.50;6.80;;;;;;;7.34;85.71;97702.89;217849;1256;142364;-73
2024/02/22 21:39:40;;;;;;;12.30;9.20;;;;;;;7.35;85.97;97693.81;217970;1256;141016;-72
2024/02/22 21:44:44;;;;;;;13.20;8.50;;;;;;;7.37;86.11;97697.38;218133;1256;139108;-72
2024/02/22 21:49:48;;;;;;;12.30;9.20;;;;;;;7.39;86.43;97692.14;218478;1254;140216;-75
2024/02/22 21:54:52;;;;;;;15.80;10.90;;;;;;;7.42;86.33;97687.89;217767;1260;139650;-72
2024/02/22 21:59:57;;;;;;;11.00;7.60;;;;;;;7.47;86.33;97682.34;217748;1255;139271;-75
2024/02/22 22:05:00;;;;;;;14.20;8.50;;;;;;;7.51;86.32;97666.76;217726;1257;139352;-73
2024/02/22 22:10:05;;;;;;;13.00;8.50;;;;;;;7.53;86.35;97661.51;217783;1256;140646;-73
2024/02/22 22:15:10;;;;;;;12.70;8.20;;;;;;;7.54;86.31;97665.34;217821;1256;139991;-74
2024/02/22 22:20:14;;;;;;;9.60;7.10;;;;;;;7.57;86.19;97664.00;217679;1259;139719;-72
2024/02/22 22:25:18;;;;;;;10.10;8.10;;;;;;;7.60;86.46;97663.69;217677;1259;138989;-76
2024/02/22 22:30:22;;;;;;;8.20;7.00;;;;;;;7.60;86.15;97658.34;217821;1254;139603;-73
2024/02/22 22:35:26;;;;;;;10.20;7.80;;;;;;;7.57;86.01;97660.14;217616;1259;139644;-73
2024/02/22 22:40:30;;;;;;;12.30;8.10;;;;;;;7.52;85.72;97656.69;217845;1254;140411;-73
2024/02/22 22:45:34;;;;;;;13.50;9.10;;;;;;;7.46;85.89;97657.85;217695;1256;140537;-73
2024/02/22 22:50:39;;;;;;;12.70;9.60;;;;;;;7.42;85.71;97653.06;218434;1256;140580;-75
2024/02/22 22:55:44;;;;;;;16.60;9.60;;;;;;;7.39;85.90;97661.75;218002;1257;139662;-75
2024/02/22 23:00:49;;;;;;;9.40;7.50;;;;;;;7.38;85.70;97661.65;217799;1256;139367;-73
2024/02/22 23:05:53;;;;;;;11.70;8.60;;;;;;;7.38;85.88;97659.27;217784;1256;139715;-75
2024/02/22 23:10:58;;;;;;;12.60;8.20;;;;;;;7.42;86.01;97658.58;217910;1259;139781;-73
2024/02/22 23:16:06;;;;;;;11.70;7.60;;;;;;;7.48;85.92;97654.13;218531;1255;139473;-76
2024/02/22 23:21:10;;;;;;;9.40;6.30;;;;;;;7.52;86.17;97651.01;218554;1255;139249;-73
2024/02/22 23:26:15;;;;;;;15.90;7.60;;;;;;;7.57;86.12;97649.48;217669;1259;163327;-75